Time;durP1;ratioP1;P1;durP2;ratioP2;P2;SDS_P1;SDS_P2;PMS_P1;PMS_P2;Temp;Humidity;BMP_temperature;BMP_pressure;BME280_temperature;BME280_humidity;BME280_pressure;Samples;Min_cycle;Max_cycle;Signal;HPM_P1;HPM_P2
2023/10/09 00:01:13;;;;;;;;;;;;;;;19.19;100.00;97876.69;5073473;28;20506;-74
2023/10/09 00:03:42;;;;;;;12.65;3.00;;;;;;;19.11;100.00;97887.34;5057356;28;20298;-74
2023/10/09 00:06:09;;;;;;;7.72;2.58;;;;;;;19.02;100.00;97888.19;5072854;28;20028;-74
2023/10/09 00:08:39;;;;;;;12.82;2.38;;;;;;;18.94;100.00;97891.59;5074151;28;20028;-74
2023/10/09 00:11:18;;;;;;;9.68;2.40;;;;;;;18.82;100.00;97871.03;5073770;28;20033;-73
2023/10/09 00:13:57;;;;;;;4.70;2.80;;;;;;;18.68;100.00;97877.66;5072802;28;20025;-73
2023/10/09 00:16:34;;;;;;;13.65;3.13;;;;;;;18.46;100.00;97858.03;5072641;28;20089;-74
2023/10/09 00:19:51;;;;;;;16.17;2.58;;;;;;;18.46;100.00;97885.94;5072419;28;20105;-73
2023/10/09 00:21:55;;;;;;;7.30;2.30;;;;;;;18.39;100.00;97887.50;5066337;28;20052;-74
2023/10/09 00:24:23;;;;;;;11.90;2.65;;;;;;;18.30;100.00;97901.84;5072739;28;20029;-74
2023/10/09 00:26:51;;;;;;;10.45;3.03;;;;;;;18.19;100.00;97920.88;5073743;28;20035;-74
2023/10/09 00:29:22;;;;;;;16.48;2.72;;;;;;;18.04;100.00;97922.19;5089425;28;20411;-75
2023/10/09 00:32:03;;;;;;;4.85;2.25;;;;;;;17.94;100.00;97921.25;5073016;28;20170;-74
2023/10/09 00:34:29;;;;;;;5.85;2.58;;;;;;;17.91;100.00;97919.69;5072531;28;20032;-74
2023/10/09 00:36:57;;;;;;;8.80;2.65;;;;;;;17.71;100.00;97905.16;5072061;28;20209;-74
2023/10/09 00:39:41;;;;;;;12.57;2.33;;;;;;;17.64;100.00;97936.44;5072159;28;20029;-75
2023/10/09 00:42:07;;;;;;;8.98;3.08;;;;;;;17.52;100.00;97942.84;5057892;28;20398;-74
2023/10/09 00:44:40;;;;;;;11.23;2.35;;;;;;;17.45;100.00;97946.16;5073415;28;20028;-74
2023/10/09 00:47:20;;;;;;;6.88;2.33;;;;;;;17.46;100.00;97958.72;5072762;28;20518;-74
2023/10/09 00:50:10;;;;;;;4.22;2.17;;;;;;;17.40;100.00;97962.78;5072058;28;20028;-74
2023/10/09 00:52:43;;;;;;;2.78;2.05;;;;;;;17.31;100.00;97963.56;5072473;28;20113;-75
2023/10/09 00:55:13;;;;;;;5.65;2.58;;;;;;;17.23;100.00;97963.31;5071901;28;20024;-75
2023/10/09 00:57:56;;;;;;;11.93;2.92;;;;;;;17.08;100.00;97970.84;5073045;28;20086;-75
2023/10/09 01:11:09;;;;;;;7.18;2.72;;;;;;;16.55;100.00;97987.81;5071588;28;20028;-74
2023/10/09 01:13:52;;;;;;;12.18;2.88;;;;;;;16.49;100.00;97994.50;5071573;28;20484;-74
2023/10/09 01:16:23;;;;;;;7.30;2.42;;;;;;;16.45;100.00;98006.53;5072885;28;20034;-74
2023/10/09 01:18:56;;;;;;;4.82;2.20;;;;;;;16.43;100.00;98010.31;5072671;28;20045;-74
2023/10/09 01:21:24;;;;;;;9.60;2.85;;;;;;;16.35;100.00;98012.75;5087911;28;20066;-75
2023/10/09 01:26:46;;;;;;;5.25;2.40;;;;;;;16.16;100.00;98010.63;5071736;28;20028;-73
2023/10/09 01:29:16;;;;;;;7.22;2.35;;;;;;;16.11;100.00;98021.78;5072341;28;20036;-73
2023/10/09 01:32:02;;;;;;;6.57;2.47;;;;;;;16.02;100.00;98011.69;5072787;28;20028;-73
2023/10/09 01:39:48;;;;;;;5.75;2.10;;;;;;;15.94;100.00;98040.22;5071319;28;20052;-75
2023/10/09 01:42:27;;;;;;;3.33;1.67;;;;;;;16.02;100.00;98044.09;5072218;28;20438;-74
2023/10/09 01:44:53;;;;;;;4.22;2.28;;;;;;;16.10;100.00;98044.34;5071196;28;20094;-74
2023/10/09 01:47:21;;;;;;;9.07;2.13;;;;;;;16.13;100.00;98045.94;5070973;28;20020;-74
2023/10/09 01:49:52;;;;;;;11.38;2.75;;;;;;;16.08;100.00;98054.41;5071113;28;20088;-74
2023/10/09 01:52:18;;;;;;;12.18;2.90;;;;;;;15.99;100.00;98043.44;5070834;28;20107;-74
2023/10/09 01:54:48;;;;;;;3.13;1.88;;;;;;;15.98;100.00;98053.38;5070838;28;20108;-73
2023/10/09 01:57:15;;;;;;;4.85;2.10;;;;;;;15.91;100.00;98062.03;5070666;28;20078;-74
2023/10/09 01:59:45;;;;;;;5.13;2.13;;;;;;;15.76;100.00;98068.56;5070894;28;20405;-75
2023/10/09 02:02:53;;;;;;;7.10;2.28;;;;;;;15.68;100.00;98075.44;5070545;28;20048;-73
2023/10/09 02:07:40;;;;;;;5.70;2.45;;;;;;;15.50;100.00;98074.09;5050814;28;20041;-73
2023/10/09 02:10:31;;;;;;;8.40;2.22;;;;;;;15.49;100.00;98076.88;5050402;28;20073;-73
2023/10/09 02:12:57;;;;;;;8.70;3.50;;;;;;;15.41;100.00;98065.78;5050970;28;20497;-73
2023/10/09 02:23:49;;;;;;;6.50;2.70;;;;;;;15.20;100.00;98068.16;5071568;28;20043;-73
2023/10/09 02:26:26;;;;;;;10.10;2.70;;;;;;;15.12;100.00;98071.44;5070539;28;20083;-74
2023/10/09 02:29:04;;;;;;;3.92;2.40;;;;;;;15.14;100.00;98085.66;5070586;28;20055;-73
2023/10/09 02:31:40;;;;;;;6.45;2.53;;;;;;;15.20;100.00;98082.50;5086894;28;20029;-73
2023/10/09 02:34:08;;;;;;;7.43;3.30;;;;;;;15.19;100.00;98075.41;5071496;28;20119;-73
2023/10/09 02:36:43;;;;;;;5.30;2.63;;;;;;;15.16;100.00;98080.16;5053784;28;20480;-73
2023/10/09 02:39:23;;;;;;;12.90;2.40;;;;;;;15.10;100.00;98081.44;5070196;28;20021;-73
2023/10/09 02:42:19;;;;;;;19.48;3.13;;;;;;;15.07;100.00;98084.34;5070399;28;20468;-73
2023/10/09 02:44:46;;;;;;;12.45;3.40;;;;;;;15.06;100.00;98090.75;5070334;28;20032;-73
2023/10/09 02:47:20;;;;;;;3.30;1.98;;;;;;;15.12;100.00;98090.28;5070315;28;20024;-73
2023/10/09 02:49:48;;;;;;;4.53;2.03;;;;;;;15.17;100.00;98098.91;5070070;28;20046;-74
2023/10/09 02:52:18;;;;;;;6.45;1.77;;;;;;;15.15;100.00;98083.81;5069952;28;20037;-74
2023/10/09 02:54:47;;;;;;;2.75;1.70;;;;;;;15.10;100.00;98089.53;5086750;28;20032;-74
2023/10/09 02:57:21;;;;;;;6.57;1.60;;;;;;;15.03;100.00;98093.66;5071177;28;20028;-74
2023/10/09 02:59:51;;;;;;;5.70;1.98;;;;;;;15.00;100.00;98082.22;5070152;28;20028;-73
2023/10/09 03:02:18;;;;;;;3.55;1.88;;;;;;;15.04;100.00;98081.03;5071116;28;20479;-74
2023/10/09 03:04:43;;;;;;;6.85;1.95;;;;;;;14.98;100.00;98082.31;5071300;28;20093;-73
2023/10/09 03:07:10;;;;;;;12.20;2.55;;;;;;;14.96;100.00;98089.66;5071169;28;20467;-73
2023/10/09 03:09:37;;;;;;;10.60;2.47;;;;;;;14.86;100.00;98093.97;5086700;28;20093;-73
2023/10/09 03:12:05;;;;;;;9.82;2.90;;;;;;;14.81;100.00;98106.03;5069751;28;20024;-73
2023/10/09 03:14:35;;;;;;;4.20;2.28;;;;;;;14.72;100.00;98095.91;5070059;28;20024;-74
2023/10/09 03:17:01;;;;;;;7.40;2.10;;;;;;;14.71;100.00;98099.56;5070014;28;20028;-73
2023/10/09 03:19:31;;;;;;;6.38;2.92;;;;;;;14.59;100.00;98094.06;5069705;28;20041;-73
2023/10/09 03:21:57;;;;;;;4.90;2.50;;;;;;;14.48;100.00;98109.25;5071033;28;20016;-73
2023/10/09 03:24:24;;;;;;;5.97;2.40;;;;;;;14.36;100.00;98100.19;5070007;28;20021;-73
2023/10/09 03:26:49;;;;;;;7.00;2.33;;;;;;;14.19;100.00;98104.94;5070943;28;20021;-74
2023/10/09 03:29:15;;;;;;;4.32;2.25;;;;;;;14.09;100.00;98113.63;5070079;28;20115;-74
2023/10/09 03:31:43;;;;;;;6.85;2.33;;;;;;;14.05;100.00;98114.81;5090237;28;20025;-74
2023/10/09 03:34:10;;;;;;;7.47;2.25;;;;;;;13.97;100.00;98118.97;5090227;28;20584;-74
2023/10/09 03:36:39;;;;;;;4.00;2.20;;;;;;;13.95;100.00;98120.91;5073389;28;20025;-72
2023/10/09 03:39:24;;;;;;;12.32;2.22;;;;;;;14.08;100.00;98121.81;5072840;28;20032;-74
2023/10/09 03:41:50;;;;;;;8.05;2.30;;;;;;;14.05;100.00;98124.72;5058557;28;20024;-73
2023/10/09 03:44:18;;;;;;;6.50;2.25;;;;;;;13.96;100.00;98123.50;5073002;28;20025;-73
2023/10/09 03:46:45;;;;;;;5.15;2.53;;;;;;;13.89;100.00;98137.44;5073262;28;20027;-74
2023/10/09 03:49:12;;;;;;;6.75;2.58;;;;;;;13.80;100.00;98135.34;5073010;28;20404;-74
2023/10/09 03:51:39;;;;;;;5.60;2.88;;;;;;;13.71;100.00;98136.81;5073193;28;20381;-73
2023/10/09 03:54:07;;;;;;;6.80;2.58;;;;;;;13.61;100.00;98133.00;5073010;28;20032;-74
2023/10/09 03:56:33;;;;;;;13.85;3.17;;;;;;;13.58;100.00;98139.44;5074241;28;20066;-73
2023/10/09 03:59:01;;;;;;;4.78;2.35;;;;;;;13.46;100.00;98140.22;5074258;28;20028;-74
2023/10/09 04:01:29;;;;;;;6.38;2.53;;;;;;;13.54;100.00;98140.59;5072499;28;20422;-74
2023/10/09 04:03:59;;;;;;;7.05;3.22;;;;;;;13.64;100.00;98138.19;5072621;28;20450;-73
2023/10/09 04:06:30;;;;;;;8.88;2.97;;;;;;;13.55;100.00;98150.38;5073723;28;20107;-74
2023/10/09 04:08:58;;;;;;;6.75;2.90;;;;;;;13.44;100.00;98142.13;5072949;28;20399;-75
2023/10/09 04:11:24;;;;;;;5.80;2.30;;;;;;;13.32;100.00;98137.53;5072383;28;20016;-75
2023/10/09 04:13:52;;;;;;;10.18;2.92;;;;;;;13.28;100.00;98141.41;5072653;28;20021;-73
2023/10/09 04:19:11;;;;;;;6.20;3.03;;;;;;;13.17;100.00;98143.03;5072843;28;20056;-73
2023/10/09 04:21:37;;;;;;;7.10;3.00;;;;;;;13.09;100.00;98140.81;5070738;28;20209;-82
2023/10/09 04:26:47;;;;;;;8.57;3.17;;;;;;;13.18;100.00;98145.63;5073564;28;20404;-73
2023/10/09 04:29:26;;;;;;;9.45;4.60;;;;;;;13.22;100.00;98152.53;5072009;28;20063;-74
2023/10/09 04:32:00;;;;;;;11.82;3.33;;;;;;;13.34;100.00;98157.13;5088009;28;20078;-74
2023/10/09 04:34:37;;;;;;;18.17;3.17;;;;;;;13.29;100.00;98153.84;5071773;28;20020;-74
2023/10/09 04:39:47;;;;;;;19.77;3.83;;;;;;;13.33;100.00;98160.78;5079237;28;20033;-74
2023/10/09 04:42:36;;;;;;;16.00;5.97;;;;;;;13.25;100.00;98159.53;5070793;28;20487;-73
2023/10/09 04:47:38;;;;;;;12.88;5.28;;;;;;;13.18;100.00;98177.84;5071559;28;20071;-75
2023/10/09 04:52:54;;;;;;;17.50;3.70;;;;;;;13.29;100.00;98191.47;5066748;28;20047;-75
2023/10/09 04:55:24;;;;;;;22.40;5.47;;;;;;;13.33;100.00;98190.34;5071435;28;20021;-74
2023/10/09 05:01:02;;;;;;;30.75;10.38;;;;;;;13.35;100.00;98191.09;5060173;28;20504;-73
2023/10/09 05:03:29;;;;;;;40.35;8.50;;;;;;;13.42;100.00;98186.19;5071171;28;20129;-74
2023/10/09 05:06:20;;;;;;;24.42;5.60;;;;;;;13.50;100.00;98194.66;5071495;28;20055;-75
2023/10/09 05:08:47;;;;;;;22.40;4.05;;;;;;;13.64;100.00;98196.44;5071575;28;20115;-74
2023/10/09 05:11:34;;;;;;;8.68;2.97;;;;;;;13.73;100.00;98193.19;5071178;28;20374;-74
2023/10/09 05:14:12;;;;;;;10.25;3.78;;;;;;;13.72;100.00;98195.00;5072580;28;20453;-74
2023/10/09 05:16:53;;;;;;;17.95;4.60;;;;;;;14.00;100.00;98204.81;5072172;28;20021;-74
2023/10/09 05:19:33;;;;;;;5.60;2.90;;;;;;;14.25;100.00;98194.19;5056404;28;20056;-74
2023/10/09 05:22:07;;;;;;;18.10;4.75;;;;;;;14.41;100.00;98203.00;5052461;28;20063;-74
2023/10/09 05:24:43;;;;;;;9.88;3.28;;;;;;;14.93;100.00;98202.16;5052129;28;20035;-73
2023/10/09 05:27:17;;;;;;;12.30;3.40;;;;;;;15.04;100.00;98205.00;5065869;28;20106;-74
2023/10/09 05:29:59;;;;;;;12.68;3.00;;;;;;;15.10;100.00;98204.56;5071884;28;20025;-74
2023/10/09 05:32:29;;;;;;;6.57;3.30;;;;;;;15.18;100.00;98210.28;5072006;28;20042;-74
2023/10/09 05:37:34;;;;;;;25.98;7.93;;;;;;;15.47;100.00;98219.88;5070454;28;20032;-74
2023/10/09 05:47:53;;;;;;;16.52;8.52;;;;;;;18.06;97.18;98204.50;5070670;28;20037;-75
2023/10/09 06:03:26;;;;;;;7.13;2.80;;;;;;;22.14;62.46;98193.69;5070429;28;20040;-74
2023/10/09 06:11:55;;;;;;;11.13;1.92;;;;;;;22.37;56.37;98205.88;5057472;28;20033;-77
2023/10/09 06:14:04;;;;;;;4.35;1.60;;;;;;;20.94;59.40;98218.88;5063334;28;20040;-79
2023/10/09 06:19:08;;;;;;;5.18;1.65;;;;;;;20.84;62.36;98220.72;5069747;28;20040;-75
2023/10/09 06:22:09;;;;;;;4.95;1.85;;;;;;;22.32;56.71;98210.09;5069986;28;20032;-77
2023/10/09 06:24:33;;;;;;;;;;;;;;;23.32;50.74;98202.63;5071042;28;20504;-75
2023/10/09 06:29:38;;;;;;;5.93;3.85;;;;;;;23.55;46.90;98195.66;5086715;28;20123;-77
2023/10/09 06:34:51;;;;;;;4.53;2.03;;;;;;;25.25;40.34;98178.88;5069794;28;20036;-78
2023/10/09 06:42:43;;;;;;;6.50;2.28;;;;;;;24.40;41.71;98184.66;5069667;28;19916;-77
2023/10/09 06:45:16;;;;;;;3.63;1.58;;;;;;;26.26;38.49;98180.06;5068904;28;20079;-77
2023/10/09 06:48:07;;;;;;;5.18;2.55;;;;;;;25.65;38.64;98174.41;5070080;28;20089;-75
2023/10/09 06:53:19;;;;;;;10.63;2.65;;;;;;;22.76;43.47;98192.91;5067333;28;20078;-75
2023/10/09 06:55:48;;;;;;;5.07;1.70;;;;;;;22.07;44.75;98195.31;5068774;28;20031;-76
2023/10/09 06:58:27;;;;;;;9.63;2.80;;;;;;;22.29;44.84;98199.50;5069138;28;20058;-75
2023/10/09 07:01:19;;;;;;;9.75;1.83;;;;;;;21.98;44.41;98191.63;5070372;28;20035;-75
2023/10/09 07:03:59;;;;;;;12.85;2.63;;;;;;;21.79;45.16;98199.81;5079148;28;20116;-75
2023/10/09 07:17:00;;;;;;;5.78;1.52;;;;;;;24.42;38.64;98189.97;5073121;28;20060;-77
2023/10/09 07:22:16;;;;;;;7.88;2.70;;;;;;;24.65;38.38;98188.31;5072935;28;20048;-79
2023/10/09 07:24:49;;;;;;;12.55;1.73;;;;;;;23.48;39.56;98195.44;5074157;28;20032;-78
2023/10/09 07:27:17;;;;;;;7.43;1.73;;;;;;;23.87;39.34;98197.75;5073948;28;20028;-79
2023/10/09 07:29:48;;;;;;;8.40;3.42;;;;;;;23.38;40.28;98196.53;5068754;28;20031;-76
2023/10/09 07:32:20;;;;;;;7.57;1.48;;;;;;;23.25;39.84;98198.81;5074018;28;20484;-75
2023/10/09 07:34:53;;;;;;;2.95;1.40;;;;;;;24.74;38.61;98181.84;5068721;28;20347;-75
2023/10/09 07:37:23;;;;;;;19.88;4.30;;;;;;;25.27;36.89;98186.91;5072686;28;20024;-75
2023/10/09 07:40:06;;;;;;;6.13;1.83;;;;;;;26.87;34.46;98175.66;5073901;28;20032;-76
2023/10/09 07:43:04;;;;;;;6.40;3.47;;;;;;;25.17;36.30;98178.00;5087534;28;20039;-77
2023/10/09 07:48:02;;;;;;;15.40;2.00;;;;;;;24.40;37.74;98186.53;5072232;28;20385;-75
2023/10/09 07:50:40;;;;;;;12.82;2.60;;;;;;;24.13;38.29;98193.97;5072301;28;20126;-74
2023/10/09 07:53:25;;;;;;;14.70;3.10;;;;;;;23.91;38.62;98191.75;5072304;28;20029;-74
2023/10/09 07:55:55;;;;;;;7.43;1.63;;;;;;;24.77;37.04;98178.78;5074607;28;20031;-74
2023/10/09 07:58:25;;;;;;;4.68;2.65;;;;;;;25.60;36.27;98176.78;5073356;28;20029;-76
2023/10/09 08:01:07;;;;;;;4.28;1.85;;;;;;;26.91;34.36;98168.75;5071973;28;20108;-74
2023/10/09 08:03:36;;;;;;;9.05;1.60;;;;;;;26.80;34.31;98164.53;5072422;28;20111;-75
2023/10/09 08:12:13;;;;;;;4.85;1.45;;;;;;;24.89;36.47;98171.97;5066599;28;20033;-76
2023/10/09 08:17:17;;;;;;;6.65;1.98;;;;;;;25.07;36.06;98171.84;5071941;28;20107;-75
2023/10/09 08:19:55;;;;;;;22.02;2.30;;;;;;;25.18;34.81;98174.22;5072950;28;20040;-74
2023/10/09 08:24:57;;;;;;;2.53;1.40;;;;;;;25.83;33.37;98155.84;5072547;28;20028;-75
2023/10/09 08:35:47;;;;;;;5.70;3.53;;;;;;;26.90;30.82;98137.69;5071380;28;20322;-74
2023/10/09 08:38:14;;;;;;;4.30;1.38;;;;;;;26.63;31.16;98134.59;5072295;28;20040;-75
2023/10/09 08:40:43;;;;;;;3.78;1.20;;;;;;;27.09;30.01;98122.59;5071492;28;20385;-76
2023/10/09 08:43:17;;;;;;;5.15;2.50;;;;;;;26.62;30.73;98119.16;5071040;28;20025;-75
2023/10/09 08:45:46;;;;;;;2.35;1.48;;;;;;;27.32;29.84;98112.41;5071089;28;20017;-76
2023/10/09 08:48:15;;;;;;;2.25;1.20;;;;;;;27.51;29.30;98110.22;5072234;28;20096;-75
2023/10/09 08:50:43;;;;;;;6.30;2.20;;;;;;;28.04;29.66;98112.69;5071278;28;20066;-75
2023/10/09 08:53:10;;;;;;;6.75;1.30;;;;;;;28.09;28.85;98104.75;5054366;28;20060;-76
2023/10/09 08:55:38;;;;;;;14.55;8.27;;;;;;;28.02;28.66;98106.53;5054538;28;20090;-76
2023/10/09 08:58:10;;;;;;;7.45;1.90;;;;;;;28.20;28.77;98109.78;5070867;28;20082;-76
2023/10/09 09:00:43;;;;;;;4.07;1.15;;;;;;;28.49;28.34;98098.69;5071066;28;20139;-77
2023/10/09 09:03:08;;;;;;;1.83;0.80;;;;;;;29.28;27.33;98096.81;5070787;28;20033;-74
2023/10/09 09:05:35;;;;;;;2.55;1.75;;;;;;;29.00;27.57;98096.72;5087570;28;20403;-76
2023/10/09 09:08:02;;;;;;;1.52;1.15;;;;;;;28.79;27.56;98082.97;5071805;28;20385;-75
2023/10/09 09:10:35;;;;;;;4.65;1.10;;;;;;;29.61;26.96;98097.03;5070641;28;20020;-76
2023/10/09 09:13:03;;;;;;;2.05;1.27;;;;;;;29.36;26.70;98093.88;5070505;28;20062;-74
2023/10/09 09:15:30;;;;;;;2.05;1.02;;;;;;;28.21;28.20;98103.22;5070564;28;20119;-74
2023/10/09 09:18:06;;;;;;;1.10;1.00;;;;;;;27.82;28.10;98094.41;5070339;28;20056;-75
2023/10/09 09:20:45;;;;;;;3.60;1.50;;;;;;;28.04;28.12;98101.69;5071419;28;20412;-75
2023/10/09 09:23:12;;;;;;;2.78;1.38;;;;;;;27.22;29.38;98105.50;5087026;28;20033;-75
2023/10/09 09:25:48;;;;;;;8.05;1.77;;;;;;;27.87;28.95;98094.69;5087036;28;20024;-75
2023/10/09 09:28:21;;;;;;;4.60;1.50;;;;;;;28.89;27.97;98090.88;5071080;28;20056;-74
2023/10/09 09:30:51;;;;;;;2.90;1.48;;;;;;;29.31;27.29;98079.84;5071157;28;20377;-75
2023/10/09 09:33:23;;;;;;;0.90;0.80;;;;;;;29.37;26.54;98070.78;5070123;28;20088;-75
2023/10/09 09:36:02;;;;;;;2.17;1.13;;;;;;;28.52;27.56;98076.28;5070592;28;20016;-75
2023/10/09 09:38:29;;;;;;;10.40;1.73;;;;;;;28.47;27.80;98075.16;5086441;28;20024;-75
2023/10/09 09:40:57;;;;;;;11.23;1.60;;;;;;;27.92;28.43;98078.47;5070033;28;20036;-76
2023/10/09 09:43:25;;;;;;;2.33;1.30;;;;;;;28.80;27.63;98073.63;5070942;28;20024;-75
2023/10/09 09:45:53;;;;;;;16.25;4.13;;;;;;;28.79;27.73;98069.19;5071266;28;20032;-74
2023/10/09 09:48:19;;;;;;;6.45;3.50;;;;;;;28.88;27.45;98062.50;5069446;28;20130;-74
2023/10/09 09:50:45;;;;;;;3.50;2.05;;;;;;;29.03;27.04;98054.16;5071149;28;20107;-76
2023/10/09 09:53:17;;;;;;;2.92;1.30;;;;;;;28.90;27.10;98049.38;5069868;28;20031;-75
2023/10/09 09:55:57;;;;;;;1.83;1.20;;;;;;;28.62;27.34;98036.53;5071142;28;20020;-77
2023/10/09 09:58:26;;;;;;;5.32;1.23;;;;;;;28.96;27.74;98033.94;5070833;28;20025;-80
2023/10/09 10:00:54;;;;;;;3.00;1.30;;;;;;;28.98;27.69;98034.56;5069577;28;20491;-78
2023/10/09 10:03:43;;;;;;;5.55;1.98;;;;;;;28.81;28.33;98031.28;5069610;28;20036;-77
2023/10/09 10:06:12;;;;;;;2.70;1.48;;;;;;;29.24;27.72;98028.47;5070164;28;20101;-79
2023/10/09 10:08:39;;;;;;;2.45;1.38;;;;;;;29.32;27.20;98018.13;5069755;28;20073;-79
2023/10/09 10:11:05;;;;;;;2.92;1.23;;;;;;;28.94;27.73;98011.25;5069748;28;20475;-77
2023/10/09 10:13:58;;;;;;;16.45;12.27;;;;;;;28.79;28.35;98018.75;5069331;28;20099;-77
2023/10/09 10:16:24;;;;;;;6.13;1.92;;;;;;;29.27;28.04;98006.88;5067065;28;20047;-78
2023/10/09 10:18:59;;;;;;;10.00;1.80;;;;;;;28.01;29.21;98003.03;5069383;28;20040;-78
2023/10/09 10:24:09;;;;;;;4.85;1.35;;;;;;;29.11;27.87;98001.63;5062207;28;20028;-77
2023/10/09 10:26:36;;;;;;;7.35;2.58;;;;;;;29.30;27.71;97995.44;5069312;28;20389;-78
2023/10/09 10:29:22;;;;;;;5.07;1.50;;;;;;;29.28;27.84;97989.28;5069418;28;20396;-78
2023/10/09 10:32:08;;;;;;;2.90;1.75;;;;;;;29.48;27.84;97975.59;5069122;28;20101;-80
2023/10/09 10:34:55;;;;;;;5.03;1.55;;;;;;;30.41;27.19;97967.53;5068755;28;20032;-80
2023/10/09 10:37:28;;;;;;;1.98;1.25;;;;;;;30.09;26.72;97946.16;5066070;28;20452;-81
2023/10/09 10:39:59;;;;;;;2.45;1.55;;;;;;;29.67;28.19;97952.78;5067354;28;20419;-79
2023/10/09 10:42:34;;;;;;;2.30;1.77;;;;;;;29.23;27.87;97941.28;5051569;28;20060;-78
2023/10/09 10:45:25;;;;;;;1.73;1.10;;;;;;;30.14;26.96;97932.63;5047654;28;20047;-79
2023/10/09 10:47:49;;;;;;;5.28;1.30;;;;;;;30.94;26.39;97935.28;5069401;28;20036;-81
2023/10/09 10:50:35;;;;;;;4.00;1.73;;;;;;;30.98;26.07;97927.38;5069544;28;20078;-80
2023/10/09 10:53:16;;;;;;;2.97;1.50;;;;;;;31.15;26.30;97925.88;5069466;28;20491;-78
2023/10/09 10:56:34;;;;;;;1.65;1.20;;;;;;;31.48;25.77;97911.97;5069166;28;20028;-78
2023/10/09 11:01:50;;;;;;;4.13;1.10;;;;;;;32.84;25.10;97893.91;5069368;28;20115;-77
2023/10/09 11:07:12;;;;;;;4.38;1.40;;;;;;;29.73;27.00;97890.44;5070234;28;20036;-76
2023/10/09 11:09:58;;;;;;;9.82;1.35;;;;;;;29.32;27.78;97887.72;5054245;28;20488;-77
2023/10/09 11:12:37;;;;;;;6.82;1.60;;;;;;;29.48;27.42;97896.50;5062916;28;20021;-74
2023/10/09 11:15:05;;;;;;;7.35;2.17;;;;;;;30.17;27.09;97881.66;5069056;28;20056;-75
2023/10/09 11:17:38;;;;;;;4.40;1.27;;;;;;;30.02;27.51;97881.84;5070314;28;20049;-75
2023/10/09 11:20:24;;;;;;;2.20;1.30;;;;;;;30.30;27.40;97868.69;5068978;28;20051;-75
2023/10/09 11:23:39;;;;;;;1.42;1.13;;;;;;;31.52;26.08;97858.78;5071503;28;20033;-74
2023/10/09 11:25:52;;;;;;;2.45;1.40;;;;;;;30.07;27.04;97858.06;5065306;28;20052;-74
2023/10/09 11:28:42;;;;;;;1.85;1.35;;;;;;;29.10;27.85;97859.41;5068201;28;20056;-77
2023/10/09 11:31:12;;;;;;;5.35;1.63;;;;;;;28.81;28.54;97852.22;5068936;28;20028;-77
2023/10/09 11:33:51;;;;;;;61.08;28.95;;;;;;;29.39;27.91;97850.84;5069237;28;20058;-77
2023/10/09 11:36:32;;;;;;;38.53;18.73;;;;;;;29.63;27.65;97837.56;5068723;28;20434;-77
2023/10/09 11:39:17;;;;;;;3.20;1.80;;;;;;;29.35;28.16;97852.31;5069116;28;20033;-76
2023/10/09 11:41:44;;;;;;;4.80;1.73;;;;;;;29.49;28.28;97844.97;5069090;28;20067;-76
2023/10/09 11:44:33;;;;;;;12.10;6.80;;;;;;;30.02;27.31;97851.50;5068726;28;20078;-77
2023/10/09 11:49:48;;;;;;;7.43;4.03;;;;;;;29.80;27.84;97822.34;5069251;28;20024;-78
2023/10/09 11:54:39;;;;;;;9.45;2.03;;;;;;;29.62;27.99;97811.06;5072477;28;20120;-76
2023/10/09 11:57:05;;;;;;;4.78;2.33;;;;;;;29.33;28.09;97807.56;5073763;28;20139;-76
2023/10/09 11:59:37;;;;;;;3.95;1.35;;;;;;;29.47;27.98;97797.44;5073477;28;20388;-77
2023/10/09 12:02:13;;;;;;;7.20;1.40;;;;;;;29.40;28.31;97791.06;5072467;28;20028;-77
2023/10/09 12:04:42;;;;;;;2.15;1.42;;;;;;;30.54;27.10;97807.34;5048740;28;20028;-76
2023/10/09 12:07:10;;;;;;;5.53;1.52;;;;;;;30.42;26.90;97789.75;5072376;28;20419;-78
2023/10/09 12:09:39;;;;;;;6.57;1.70;;;;;;;29.36;28.39;97795.28;5072097;28;20601;-77
2023/10/09 12:12:07;;;;;;;3.47;1.50;;;;;;;29.02;28.45;97793.41;5072086;28;20025;-75
2023/10/09 12:14:33;;;;;;;2.10;1.45;;;;;;;29.07;28.54;97799.19;5071673;28;20036;-76
2023/10/09 12:17:06;;;;;;;3.00;1.48;;;;;;;29.63;27.77;97787.91;5071911;28;20055;-76
2023/10/09 12:19:36;;;;;;;3.35;1.38;;;;;;;29.47;28.17;97781.72;5071697;28;20044;-76
2023/10/09 12:22:05;;;;;;;2.33;1.45;;;;;;;29.78;27.97;97774.81;5071743;28;20025;-75
2023/10/09 12:24:34;;;;;;;9.63;2.60;;;;;;;29.94;28.01;97779.94;5071659;28;20028;-76
2023/10/09 12:27:00;;;;;;;1.73;1.20;;;;;;;29.70;27.54;97762.06;5071846;28;20028;-76
2023/10/09 12:29:30;;;;;;;2.35;1.48;;;;;;;29.93;27.18;97762.50;5054852;28;20107;-76
2023/10/09 12:31:59;;;;;;;7.40;2.50;;;;;;;29.26;27.89;97765.34;5071750;28;20400;-77
2023/10/09 12:34:29;;;;;;;1.48;1.20;;;;;;;29.19;28.15;97761.69;5071442;28;20032;-75
2023/10/09 12:37:00;;;;;;;2.45;1.25;;;;;;;29.08;27.65;97756.78;5071719;28;20083;-77
2023/10/09 12:39:31;;;;;;;2.80;1.33;;;;;;;29.39;27.81;97756.25;5072671;28;20036;-77
2023/10/09 12:41:58;;;;;;;3.45;1.73;;;;;;;28.77;28.02;97748.16;5071625;28;20028;-77
2023/10/09 12:44:27;;;;;;;2.78;1.40;;;;;;;29.32;28.20;97750.72;5071740;28;20047;-78
2023/10/09 12:46:52;;;;;;;5.68;2.03;;;;;;;29.13;28.36;97746.00;5064823;28;20024;-75
2023/10/09 12:49:27;;;;;;;2.42;1.45;;;;;;;29.47;27.56;97743.13;5072575;28;20028;-75
2023/10/09 12:51:53;;;;;;;5.13;1.80;;;;;;;29.48;27.17;97733.81;5071766;28;20434;-75
2023/10/09 12:54:26;;;;;;;2.47;2.00;;;;;;;28.60;28.58;97733.00;5071292;28;20533;-77
2023/10/09 12:56:52;;;;;;;2.72;1.98;;;;;;;29.20;27.74;97730.31;5071347;28;20078;-74
2023/10/09 12:59:19;;;;;;;2.70;1.80;;;;;;;29.02;28.03;97724.53;5071195;28;20509;-75
2023/10/09 13:01:49;;;;;;;3.42;2.00;;;;;;;28.66;28.18;97716.56;5069245;28;20029;-75
2023/10/09 13:04:15;;;;;;;10.35;3.30;;;;;;;28.30;28.93;97705.72;5070873;28;20032;-75
2023/10/09 13:06:44;;;;;;;6.25;2.15;;;;;;;27.99;28.53;97702.53;5072369;28;20041;-74
2023/10/09 13:09:15;;;;;;;9.43;2.22;;;;;;;27.82;29.26;97701.97;5070906;28;20110;-74
2023/10/09 13:11:42;;;;;;;11.15;2.33;;;;;;;27.92;29.30;97699.75;5071994;28;20024;-74
2023/10/09 13:14:17;;;;;;;6.15;2.55;;;;;;;28.04;29.10;97697.28;5070675;28;20498;-75
2023/10/09 13:16:43;;;;;;;11.93;2.58;;;;;;;27.89;28.41;97685.53;5071699;28;20484;-75
2023/10/09 13:19:11;;;;;;;5.38;2.10;;;;;;;28.17;28.10;97691.03;5071968;28;20045;-75
2023/10/09 13:21:40;;;;;;;6.85;2.20;;;;;;;27.81;29.32;97693.94;5071527;28;20060;-75
2023/10/09 13:24:12;;;;;;;4.35;2.50;;;;;;;28.10;29.35;97688.25;5071045;28;20090;-76
2023/10/09 13:26:38;;;;;;;4.15;2.80;;;;;;;27.55;28.70;97682.72;5071044;28;20029;-75
2023/10/09 13:29:08;;;;;;;5.47;3.05;;;;;;;26.98;28.96;97675.34;5070498;28;20033;-76
2023/10/09 13:31:37;;;;;;;9.40;3.05;;;;;;;26.39;29.53;97666.41;5071654;28;20032;-75
2023/10/09 13:34:06;;;;;;;5.03;2.80;;;;;;;26.63;30.43;97676.19;5070849;28;20073;-76
2023/10/09 13:36:33;;;;;;;7.10;2.97;;;;;;;26.73;30.31;97674.00;5071575;28;20499;-75
2023/10/09 13:41:44;;;;;;;8.52;2.38;;;;;;;26.21;30.45;97661.28;5070192;28;20116;-75
2023/10/09 13:44:10;;;;;;;7.35;3.25;;;;;;;26.49;32.47;97666.09;5070216;28;20103;-75
2023/10/09 13:46:41;;;;;;;7.72;2.08;;;;;;;26.51;30.41;97662.13;5070000;28;20535;-75
2023/10/09 13:49:13;;;;;;;4.00;2.30;;;;;;;26.28;32.01;97667.72;5058087;28;20033;-76
2023/10/09 13:51:46;;;;;;;3.70;2.33;;;;;;;26.26;30.99;97661.59;5050366;28;20039;-75
2023/10/09 13:54:21;;;;;;;5.35;2.63;;;;;;;26.18;30.41;97664.41;5063724;28;20034;-77
2023/10/09 13:56:53;;;;;;;10.90;4.85;;;;;;;25.89;30.38;97653.41;5069604;28;20047;-76
2023/10/09 13:59:21;;;;;;;4.40;2.58;;;;;;;26.32;30.98;97651.72;5069989;28;20095;-76
2023/10/09 14:01:48;;;;;;;3.17;2.58;;;;;;;26.65;29.67;97652.13;5069693;28;20119;-75
2023/10/09 14:04:18;;;;;;;36.35;18.52;;;;;;;26.47;30.56;97641.59;5070950;28;20112;-75
2023/10/09 14:06:44;;;;;;;13.13;6.70;;;;;;;26.42;30.65;97644.88;5069874;28;20075;-74
2023/10/09 14:09:11;;;;;;;7.50;2.30;;;;;;;26.34;30.60;97641.41;5069906;28;20028;-76
2023/10/09 14:11:44;;;;;;;12.38;3.65;;;;;;;25.61;31.77;97652.34;5069751;28;20394;-75
2023/10/09 14:14:09;;;;;;;9.93;2.67;;;;;;;25.74;31.40;97630.63;5069822;28;20024;-76
2023/10/09 14:16:42;;;;;;;6.97;2.20;;;;;;;26.04;30.67;97632.31;5070653;28;20055;-74